Aviation Digital Data Service (ADDS)

Output produced by TAFs form (1412 UTC 30 August 2014)
found at http://www.aviationweather.gov/adds/tafs/
 
KSBY 301128Z 3012/3112 15004KT P6SM BKN040 
     FM301600 17008KT P6SM SCT050 
     FM310000 18004KT P6SM BKN250